Time;durP1;ratioP1;P1;durP2;ratioP2;P2;SDS_P1;SDS_P2;PMS_P1;PMS_P2;Temp;Humidity;BMP_temperature;BMP_pressure;BME280_temperature;BME280_humidity;BME280_pressure;Samples;Min_cycle;Max_cycle;Signal;HPM_P1;HPM_P2
2021/09/23 00:01:02;;;;;;;18.40;15.50;;;;;;;8.80;76.37;99998.77;467429;1191;143993;-61
2021/09/23 00:11:08;;;;;;;22.50;17.20;;;;;;;8.84;76.46;99973.07;466165;1192;141883;-63
2021/09/23 00:21:14;;;;;;;20.20;15.20;;;;;;;8.86;76.47;99963.20;463599;1191;142744;-62
2021/09/23 00:31:20;;;;;;;20.10;15.40;;;;;;;8.85;76.61;99956.62;461209;1192;141624;-62
2021/09/23 00:41:26;;;;;;;19.10;14.00;;;;;;;8.88;76.76;99939.88;466640;1191;142051;-63
2021/09/23 00:51:32;;;;;;;18.50;13.80;;;;;;;8.79;76.82;99926.73;464463;1191;143013;-64
2021/09/23 01:01:44;;;;;;;21.60;16.10;;;;;;;8.65;76.84;99920.62;465385;1191;142662;-64
2021/09/23 01:11:50;;;;;;;19.80;15.30;;;;;;;8.62;77.21;99905.22;471651;1191;141974;-62
2021/09/23 01:21:58;;;;;;;21.60;15.10;;;;;;;8.66;77.42;99887.59;473811;1190;142928;-62
2021/09/23 01:32:05;;;;;;;19.60;15.20;;;;;;;8.73;77.58;99869.42;474694;1190;141313;-62
2021/09/23 01:42:11;;;;;;;19.80;15.60;;;;;;;8.76;77.60;99845.31;462502;1177;141851;-61
2021/09/23 01:52:17;;;;;;;18.80;15.70;;;;;;;8.67;77.82;99849.14;464923;1192;141647;-62
2021/09/23 02:02:23;;;;;;;21.50;16.50;;;;;;;8.61;77.92;99839.35;477089;1189;162807;-61
2021/09/23 02:12:30;;;;;;;23.80;16.70;;;;;;;8.50;78.01;99832.35;477914;1190;142418;-62
2021/09/23 02:22:36;;;;;;;21.10;16.30;;;;;;;8.43;78.35;99826.58;477980;1190;141899;-62
2021/09/23 02:32:43;;;;;;;20.00;16.30;;;;;;;8.45;78.74;99824.05;476704;1191;141362;-62
2021/09/23 02:42:49;;;;;;;22.70;17.10;;;;;;;8.57;78.79;99820.35;477486;1190;142313;-62
2021/09/23 02:52:54;;;;;;;21.90;15.70;;;;;;;8.65;78.88;99820.60;474266;1191;141373;-63
2021/09/23 03:03:00;;;;;;;20.00;15.30;;;;;;;8.72;79.11;99813.59;464942;1192;141220;-61
2021/09/23 03:13:06;;;;;;;21.40;16.00;;;;;;;8.84;79.20;99800.60;466460;1191;140932;-60
2021/09/23 03:23:12;;;;;;;20.10;17.40;;;;;;;8.90;79.46;99776.52;470688;1190;140637;-63
2021/09/23 03:33:18;;;;;;;21.00;16.70;;;;;;;8.90;79.71;99764.13;466393;1190;141286;-61
2021/09/23 03:43:24;;;;;;;19.00;15.20;;;;;;;8.97;79.76;99753.61;475194;1190;142027;-63
2021/09/23 03:53:30;;;;;;;19.60;15.30;;;;;;;9.06;79.92;99735.32;468516;1190;142521;-61
2021/09/23 04:03:36;;;;;;;20.30;17.20;;;;;;;9.16;80.00;99729.52;468229;1191;142034;-63
2021/09/23 04:13:43;;;;;;;27.10;17.10;;;;;;;9.25;80.22;99704.91;474278;1191;140920;-62
2021/09/23 04:23:49;;;;;;;20.00;17.70;;;;;;;9.33;80.14;99698.38;471402;1190;141981;-61
2021/09/23 04:33:57;;;;;;;22.40;17.50;;;;;;;9.34;80.43;99713.33;460862;1190;142079;-61
2021/09/23 04:44:02;;;;;;;25.10;19.00;;;;;;;9.38;80.81;99714.66;464981;1190;141735;-62
2021/09/23 04:54:08;;;;;;;27.50;18.70;;;;;;;9.44;80.91;99689.89;477664;1190;198252;-62
2021/09/23 05:04:15;;;;;;;21.20;16.60;;;;;;;9.47;81.15;99664.36;471975;1189;140940;-62
2021/09/23 05:14:21;;;;;;;25.60;17.80;;;;;;;9.55;81.15;99660.45;476677;1191;141575;-63
2021/09/23 05:24:27;;;;;;;19.10;15.30;;;;;;;9.67;81.38;99630.39;477783;1190;142593;-63
2021/09/23 05:34:33;;;;;;;18.20;14.60;;;;;;;9.78;81.21;99632.65;474756;1191;141651;-61
2021/09/23 05:44:39;;;;;;;19.10;14.20;;;;;;;9.79;81.29;99643.45;460096;1191;141996;-60
2021/09/23 05:54:44;;;;;;;16.90;13.40;;;;;;;9.90;81.28;99646.67;463482;1191;146568;-62
2021/09/23 06:04:50;;;;;;;20.30;13.90;;;;;;;10.10;81.29;99648.80;475734;1191;142903;-61
2021/09/23 06:14:56;;;;;;;19.70;13.20;;;;;;;10.65;81.20;99645.05;476462;1190;185540;-63
2021/09/23 06:25:02;;;;;;;17.60;11.90;;;;;;;11.35;80.11;99641.09;474541;1190;142185;-63
2021/09/23 06:35:09;;;;;;;13.30;9.90;;;;;;;11.66;79.41;99632.25;477020;1190;141484;-63
2021/09/23 06:45:23;;;;;;;17.50;11.50;;;;;;;12.04;78.65;99621.39;477880;1190;141596;-63
2021/09/23 06:55:29;;;;;;;16.60;9.70;;;;;;;13.70;78.10;99623.03;464896;1190;141229;-62
2021/09/23 07:05:35;;;;;;;13.20;8.70;;;;;;;17.59;72.65;99603.02;468530;1186;141388;-64
2021/09/23 07:15:42;;;;;;;14.60;9.30;;;;;;;15.72;70.03;99590.09;463061;1190;141408;-61
2021/09/23 07:25:48;;;;;;;14.00;9.40;;;;;;;14.72;71.15;99574.48;465159;1190;141639;-63
2021/09/23 07:35:55;;;;;;;16.10;9.20;;;;;;;14.35;71.71;99567.83;467187;1191;141313;-65
2021/09/23 07:46:03;;;;;;;11.70;7.30;;;;;;;14.84;71.80;99559.31;476723;1191;140678;-67
2021/09/23 07:56:09;;;;;;;11.10;7.70;;;;;;;21.34;67.92;99552.80;469284;1184;141601;-62
2021/09/23 08:06:19;;;;;;;13.20;7.00;;;;;;;24.75;59.25;99551.14;463864;1190;140979;-67
2021/09/23 08:16:25;;;;;;;8.80;6.70;;;;;;;27.15;54.70;99547.34;470434;1190;139943;-62
2021/09/23 08:26:31;;;;;;;13.00;5.90;;;;;;;27.45;50.30;99531.59;476960;1190;141310;-63
2021/09/23 08:36:38;;;;;;;10.60;4.70;;;;;;;23.66;50.95;99514.02;477896;1190;141521;-64
2021/09/23 08:46:44;;;;;;;7.40;5.60;;;;;;;21.03;52.70;99511.77;474226;1190;141192;-63
2021/09/23 08:56:51;;;;;;;9.40;4.90;;;;;;;18.89;55.08;99493.02;476715;1190;142889;-59
2021/09/23 09:06:58;;;;;;;7.60;4.40;;;;;;;17.61;57.20;99480.27;464041;1190;141211;-61
2021/09/23 09:17:06;;;;;;;9.40;5.60;;;;;;;16.76;59.04;99458.64;476923;1189;141208;-62
2021/09/23 09:27:27;;;;;;;12.20;5.40;;;;;;;16.23;60.32;99442.20;472681;1190;140039;-60
2021/09/23 09:37:34;;;;;;;9.10;5.30;;;;;;;16.06;61.20;99408.73;469749;1191;141418;-59
2021/09/23 09:47:42;;;;;;;9.80;6.20;;;;;;;16.24;61.77;99381.13;469368;1192;142736;-60
2021/09/23 09:57:49;;;;;;;12.50;6.80;;;;;;;16.18;61.73;99353.39;477840;1190;141445;-61
2021/09/23 10:08:00;;;;;;;14.10;6.50;;;;;;;15.78;62.50;99363.86;466559;1190;140893;-63
2021/09/23 10:18:06;;;;;;;7.60;5.50;;;;;;;16.05;62.99;99339.95;477643;1191;142371;-60
2021/09/23 10:28:13;;;;;;;13.80;8.00;;;;;;;15.98;62.67;99345.17;471454;1191;141559;-62
2021/09/23 10:38:19;;;;;;;7.20;5.50;;;;;;;15.61;63.24;99321.66;470844;1190;142032;-61
2021/09/23 10:48:27;;;;;;;10.40;5.70;;;;;;;15.37;63.98;99302.40;469904;1191;142173;-60
2021/09/23 10:58:34;;;;;;;7.20;4.60;;;;;;;15.59;64.01;99279.59;467801;1192;145997;-59
2021/09/23 11:08:46;;;;;;;8.60;5.30;;;;;;;15.71;64.09;99260.91;465794;1177;141050;-59
2021/09/23 11:18:53;;;;;;;8.30;5.00;;;;;;;15.98;63.87;99249.85;477780;1190;142135;-60
2021/09/23 11:28:59;;;;;;;12.30;6.50;;;;;;;16.03;64.05;99242.54;463939;1190;141832;-65
2021/09/23 11:39:05;;;;;;;9.50;4.60;;;;;;;16.14;64.23;99230.66;468270;1190;142138;-72
2021/09/23 11:49:12;;;;;;;8.90;5.70;;;;;;;16.56;64.11;99201.16;475868;1190;141425;-66
2021/09/23 11:59:24;;;;;;;14.10;6.50;;;;;;;17.23;63.11;99186.31;474119;1190;141743;-66
2021/09/23 12:09:30;;;;;;;8.40;4.70;;;;;;;17.47;62.67;99153.88;466481;1189;140992;-65
2021/09/23 12:19:36;;;;;;;6.50;4.50;;;;;;;17.72;62.20;99143.61;471122;1190;141277;-74
2021/09/23 12:29:44;;;;;;;5.80;4.40;;;;;;;17.94;61.41;99135.76;464926;1190;142322;-67
2021/09/23 12:39:50;;;;;;;7.60;5.80;;;;;;;18.20;60.39;99114.58;463678;1190;143037;-65
2021/09/23 12:50:02;;;;;;;11.40;6.50;;;;;;;17.93;60.19;99088.44;477674;1190;141865;-63
2021/09/23 13:00:12;;;;;;;8.60;5.30;;;;;;;17.28;60.65;99072.94;464048;1190;152814;-63
2021/09/23 13:10:20;;;;;;;6.10;5.50;;;;;;;17.01;61.52;99044.36;477827;1189;143132;-62
2021/09/23 13:20:24;;;;;;;;;;;;;;;16.83;62.05;99019.71;462750;1190;141497;-63
2021/09/23 13:30:29;;;;;;;;;;;;;;;16.81;62.23;99006.31;458106;1190;10001760;-58
2021/09/23 13:40:36;;;;;;;11.60;7.70;;;;;;;16.80;62.11;99000.96;473973;1184;128631;-60
2021/09/23 13:50:43;;;;;;;12.80;8.80;;;;;;;16.99;61.98;98986.92;476691;1191;141045;-60
2021/09/23 14:00:48;;;;;;;9.40;6.70;;;;;;;16.82;62.19;98976.95;468690;1190;141521;-58
2021/09/23 14:10:55;;;;;;;7.10;6.30;;;;;;;16.66;62.34;98948.40;472738;1183;142162;-58
2021/09/23 14:21:01;;;;;;;8.50;6.20;;;;;;;16.62;62.65;98946.41;468959;1190;142267;-60
2021/09/23 14:31:07;;;;;;;6.50;5.70;;;;;;;16.64;62.76;98928.88;472348;1191;140765;-61
2021/09/23 14:41:13;;;;;;;8.90;6.50;;;;;;;16.69;62.64;98900.41;465477;1191;141796;-60
2021/09/23 14:51:20;;;;;;;8.10;6.10;;;;;;;16.62;62.61;98899.96;475347;1190;142032;-60
2021/09/23 15:01:26;;;;;;;9.60;5.80;;;;;;;16.43;62.88;98886.94;473729;1192;141414;-60
2021/09/23 15:11:32;;;;;;;7.60;5.40;;;;;;;16.28;63.09;98863.64;456108;1190;10001955;-59
2021/09/23 15:21:37;;;;;;;7.20;6.60;;;;;;;16.16;63.33;98848.30;473442;1190;141798;-59
2021/09/23 15:31:45;;;;;;;8.20;5.90;;;;;;;15.99;63.63;98832.85;465265;1183;142939;-59
2021/09/23 15:41:51;;;;;;;9.30;6.30;;;;;;;15.79;64.07;98823.86;465137;1191;141646;-58
2021/09/23 15:51:57;;;;;;;8.80;8.00;;;;;;;15.59;64.65;98801.04;464180;1192;143274;-60
2021/09/23 16:02:09;;;;;;;10.00;6.70;;;;;;;15.41;65.14;98775.23;461477;1191;142068;-61
2021/09/23 16:12:16;;;;;;;9.60;8.40;;;;;;;15.20;65.70;98748.31;463096;1191;141163;-59
2021/09/23 16:22:22;;;;;;;10.60;7.40;;;;;;;15.00;66.16;98747.09;474645;1191;142360;-60
2021/09/23 16:32:27;;;;;;;10.70;7.50;;;;;;;14.86;66.52;98739.80;473126;1192;142084;-59
2021/09/23 16:42:33;;;;;;;13.90;9.80;;;;;;;14.74;66.84;98711.09;471873;1191;142207;-60
2021/09/23 16:52:39;;;;;;;12.60;10.20;;;;;;;14.68;67.11;98687.14;469218;1191;142187;-59
2021/09/23 17:02:45;;;;;;;11.80;8.60;;;;;;;14.62;67.50;98667.13;460742;1191;145727;-59
2021/09/23 17:12:51;;;;;;;9.90;8.90;;;;;;;14.53;68.09;98628.30;465735;1191;141226;-60
2021/09/23 17:23:01;;;;;;;13.00;10.00;;;;;;;14.47;68.49;98602.00;473056;1190;142042;-71
2021/09/23 17:33:07;;;;;;;10.10;9.10;;;;;;;14.37;68.93;98567.39;473504;1191;143248;-59
2021/09/23 17:43:12;;;;;;;9.80;8.00;;;;;;;14.35;69.12;98533.44;476968;1191;142455;-58
2021/09/23 17:53:18;;;;;;;9.10;6.80;;;;;;;14.38;69.23;98515.68;472249;1190;141243;-65
2021/09/23 18:03:24;;;;;;;10.20;7.70;;;;;;;14.45;69.27;98506.55;463775;1190;140418;-66
2021/09/23 18:13:31;;;;;;;9.20;7.40;;;;;;;14.50;69.18;98499.04;470459;1190;141947;-61
2021/09/23 18:23:37;;;;;;;10.10;7.60;;;;;;;14.56;69.07;98470.07;476943;1190;141463;-65
2021/09/23 18:33:43;;;;;;;8.40;6.00;;;;;;;14.62;68.93;98450.33;477814;1190;143452;-62
2021/09/23 18:43:49;;;;;;;10.30;6.60;;;;;;;14.67;68.92;98455.13;477786;1190;144187;-62
2021/09/23 18:53:55;;;;;;;6.50;5.50;;;;;;;14.75;68.98;98440.31;476396;1191;141896;-61
2021/09/23 19:04:02;;;;;;;9.90;6.40;;;;;;;14.68;69.75;98423.65;477086;1191;141004;-62
2021/09/23 19:14:08;;;;;;;7.20;5.90;;;;;;;14.47;70.53;98402.88;465173;1190;141785;-64
2021/09/23 19:24:15;;;;;;;6.60;5.90;;;;;;;14.27;71.28;98387.76;461988;1192;141786;-61
2021/09/23 19:34:21;;;;;;;7.80;6.00;;;;;;;14.14;71.83;98371.45;468333;1190;141997;-67
2021/09/23 19:44:27;;;;;;;8.60;6.30;;;;;;;14.05;72.30;98356.31;463212;1191;140838;-68
2021/09/23 19:54:37;;;;;;;6.90;5.80;;;;;;;14.06;72.28;98352.00;477833;1190;141026;-67
2021/09/23 20:04:43;;;;;;;8.00;7.10;;;;;;;14.06;72.59;98339.42;471140;1190;142462;-68
2021/09/23 20:14:51;;;;;;;6.60;5.30;;;;;;;14.10;72.66;98315.98;471559;1190;141443;-69
2021/09/23 20:24:57;;;;;;;9.60;6.80;;;;;;;14.11;72.83;98284.93;464731;1190;141044;-68
2021/09/23 20:35:04;;;;;;;5.40;4.90;;;;;;;14.11;72.85;98268.73;465479;1191;140408;-66
2021/09/23 20:45:11;;;;;;;5.40;4.80;;;;;;;14.11;73.00;98267.88;468846;1192;142406;-64
2021/09/23 20:55:40;;;;;;;5.00;4.50;;;;;;;14.14;72.96;98270.23;467483;1192;141170;-66
2021/09/23 21:05:51;;;;;;;5.80;4.30;;;;;;;14.24;72.44;98275.20;465060;1192;141337;-63
2021/09/23 21:15:57;;;;;;;6.10;4.00;;;;;;;14.27;72.59;98273.37;463025;1192;141303;-67
2021/09/23 21:26:03;;;;;;;5.40;4.20;;;;;;;14.04;73.38;98254.00;461090;1192;140841;-64
2021/09/23 21:36:10;;;;;;;5.00;4.30;;;;;;;13.71;74.21;98236.98;461727;1192;141017;-66
2021/09/23 21:46:16;;;;;;;4.80;4.50;;;;;;;13.56;74.67;98218.00;462352;1191;142105;-66
2021/09/23 21:56:23;;;;;;;4.80;4.40;;;;;;;13.43;75.13;98203.46;460286;1192;140837;-67
2021/09/23 22:06:29;;;;;;;5.30;4.60;;;;;;;13.38;75.31;98172.35;460965;1191;142183;-65
2021/09/23 22:16:35;;;;;;;4.20;3.80;;;;;;;13.44;75.06;98151.92;461631;1191;141375;-66
2021/09/23 22:26:41;;;;;;;3.60;3.30;;;;;;;13.57;74.42;98117.38;461099;1192;142200;-66
2021/09/23 22:36:47;;;;;;;6.80;4.50;;;;;;;13.73;73.77;98123.21;461536;1193;141473;-66
2021/09/23 22:46:57;;;;;;;4.90;3.50;;;;;;;13.92;73.41;98127.07;460976;1192;142037;-62
2021/09/23 22:57:03;;;;;;;3.90;3.40;;;;;;;13.92;73.54;98138.34;461894;1190;141365;-60
2021/09/23 23:07:09;;;;;;;3.40;2.70;;;;;;;13.85;73.84;98171.40;463525;1190;141828;-65
2021/09/23 23:17:16;;;;;;;3.00;1.30;;;;;;;13.72;73.62;98167.27;461084;1190;142211;-60
2021/09/23 23:27:22;;;;;;;1.60;1.30;;;;;;;13.58;73.40;98183.57;462343;1192;143501;-63
2021/09/23 23:37:28;;;;;;;1.10;1.00;;;;;;;13.35;74.05;98192.45;461525;1193;140461;-65
2021/09/23 23:47:36;;;;;;;1.30;1.00;;;;;;;13.03;74.62;98192.35;461682;1191;141794;-60
2021/09/23 23:57:42;;;;;;;2.60;1.10;;;;;;;12.84;75.35;98205.23;462671;1192;140727;-65
